This is the latest recevied weather packets stored in our database for station/object WA6OOO. If no packets are shown the sender has not sent any weather packets the latest 1 day(s).
| Time | Temp. | Humidity | Pressure | Rain* | Wind** | Luminosity | Snow |
|---|---|---|---|---|---|---|---|
| 1778110965 | 18.89° C | 62% | 1019 hPa | 0 mm | - | 395 W/m² | - |
| 1778109750 | 19.44° C | 61% | 1019 hPa | 0 mm | - | 456 W/m² | - |
| 1778109146 | 20° C | 62% | 1019 hPa | 0 mm | - | 486 W/m² | - |
| 1778106111 | 18.89° C | 66% | 1019.9 hPa | 0 mm | - | 627 W/m² | - |
| 1778103988 | 20° C | 64% | 1020.5 hPa | 0 mm | - | 703 W/m² | - |
| 1778102778 | 19.44° C | 66% | 1020.6 hPa | 0 mm | - | 734 W/m² | - |
| 1778098532 | 19.44° C | 63% | 1021 hPa | 0 mm | - | 794 W/m² | - |
| 1778098228 | 19.44° C | 64% | 1021.3 hPa | 0 mm | - | 795 W/m² | - |
| 1778096712 | 20° C | 62% | 1021.4 hPa | 0 mm | - | 794 W/m² | - |
| 1778096106 | 20° C | 62% | 1021.5 hPa | 0 mm | - | 793 W/m² | - |
| 1778095195 | 18.89° C | 67% | 1021.3 hPa | 0 mm | - | 789 W/m² | - |
| 1778094286 | 19.44° C | 66% | 1021.3 hPa | 0 mm | - | 784 W/m² | - |
| 1778091558 | 18.89° C | 68% | 1021.8 hPa | 0 mm | - | 742 W/m² | - |
| 1778089739 | 19.44° C | 67% | 1021.8 hPa | 0 mm | - | 693 W/m² | - |
| 1778088830 | 19.44° C | 66% | 1021.7 hPa | 0 mm | - | 665 W/m² | - |
| 1778088224 | 18.89° C | 68% | 1021.7 hPa | 0 mm | - | 635 W/m² | - |
| 1778087012 | 18.33° C | 65% | 1021.6 hPa | 0 mm | - | 596 W/m² | - |
| 1778086105 | 18.89° C | 67% | 1021.7 hPa | 0 mm | - | 559 W/m² | - |
| 1778085802 | 18.89° C | 66% | 1021.5 hPa | 0 mm | - | 545 W/m² | - |
| 1778084890 | 17.78° C | 69% | 1021.6 hPa | 0 mm | - | 498 W/m² | - |
| 1778083680 | 17.78° C | 67% | 1021.7 hPa | 0 mm | - | 440 W/m² | - |
| 1778083075 | 17.22° C | 69% | 1021.6 hPa | 0 mm | - | 411 W/m² | - |
| 1778079518 | 15° C | 72% | 1021.6 hPa | 0 mm | - | 77 W/m² | - |
| 1778079214 | 15° C | 71% | 1021.6 hPa | 0 mm | - | 204 W/m² | - |
| 1778077702 | 14.44° C | 73% | 1021.4 hPa | 0 mm | - | 133 W/m² | - |
* Rain latest hour (hover to see other rain measurements)
** Current wind speed in m/s (hover to see current wind gust speed)